createdAt,value
2023-01-10T00:01:45.281Z,99564.44
2023-01-10T00:04:12.419Z,99575.41
2023-01-10T00:06:39.894Z,99562.53
2023-01-10T00:09:06.973Z,99562.53
2023-01-10T00:11:53.142Z,99562.81
2023-01-10T00:14:20.260Z,99559.88
2023-01-10T00:16:47.449Z,99557.47
2023-01-10T00:19:14.561Z,99548.88
2023-01-10T00:21:41.994Z,99543.28
2023-01-10T00:24:18.762Z,99546.22
2023-01-10T00:26:53.411Z,99550.06
2023-01-10T00:29:22.231Z,99546.97
2023-01-10T00:31:49.466Z,99546.22
2023-01-10T00:34:16.772Z,99540.91
2023-01-10T00:36:45.799Z,99543.28
2023-01-10T00:39:12.938Z,99546.78
2023-01-10T00:41:59.149Z,99539.56
2023-01-10T00:44:26.445Z,99556.59
2023-01-10T00:46:54.240Z,99548.44
2023-01-10T00:49:21.370Z,99553.78
2023-01-10T00:51:48.701Z,99554.81
2023-01-10T00:54:16.025Z,99555.13
2023-01-10T00:56:43.212Z,99560.75
2023-01-10T00:59:10.402Z,99562.53
2023-01-10T01:01:37.690Z,99556.78
2023-01-10T01:04:05.051Z,99562.97
2023-01-10T01:06:32.167Z,99567.38
2023-01-10T01:08:59.872Z,99559.09
2023-01-10T01:11:26.965Z,99572.84
2023-01-10T01:13:54.010Z,99572.41
2023-01-10T01:16:21.194Z,99560.72
2023-01-10T01:18:48.339Z,99563.06
2023-01-10T01:21:15.415Z,99558.63
2023-01-10T01:23:42.972Z,99558.31
2023-01-10T01:26:11.255Z,99556.84
2023-01-10T01:28:38.303Z,99554.19
2023-01-10T01:31:11.530Z,99555.06
2023-01-10T01:33:38.925Z,99555.38
2023-01-10T01:36:11.265Z,99562.47
2023-01-10T01:38:39.669Z,99564.56
2023-01-10T01:41:27.481Z,99565.16
2023-01-10T01:44:07.917Z,99569.31
2023-01-10T01:46:38.820Z,99567.38
2023-01-10T01:49:10.069Z,99559.53
2023-01-10T01:51:37.187Z,99556.28
2023-01-10T01:54:08.142Z,99560.25
2023-01-10T01:57:05.211Z,99557.72
2023-01-10T01:59:40.707Z,99550.59
2023-01-10T02:02:19.172Z,99556.38
2023-01-10T02:04:57.803Z,99561.38
2023-01-10T02:07:26.883Z,99558.28
2023-01-10T02:09:58.799Z,99543.81
2023-01-10T02:12:28.009Z,99549.53
2023-01-10T02:14:56.353Z,99554.13
2023-01-10T02:17:23.436Z,99553.84
2023-01-10T02:20:04.231Z,99561.09
2023-01-10T02:23:08.557Z,99551.91
2023-01-10T02:25:57.594Z,99544.66
2023-01-10T02:29:07.378Z,99542.47
2023-01-10T02:32:11.242Z,99541.72
2023-01-10T02:34:45.993Z,99547.03
2023-01-10T02:37:44.676Z,99540.09
2023-01-10T02:40:22.601Z,99533.16
2023-01-10T02:43:01.638Z,99539.34
2023-01-10T02:45:34.308Z,99538.19
2023-01-10T02:48:01.424Z,99538.91
2023-01-10T02:50:43.715Z,99551.34
2023-01-10T02:53:29.669Z,99544.66
2023-01-10T02:56:05.147Z,99545.41
2023-01-10T02:58:34.883Z,99546.16
2023-01-10T03:01:13.165Z,99542.31
2023-01-10T03:04:08.935Z,99541.44
2023-01-10T03:06:48.392Z,99539.66
2023-01-10T03:09:29.389Z,99538.91
2023-01-10T03:12:08.090Z,99528.13
2023-01-10T03:14:37.821Z,99526.66
2023-01-10T03:17:10.881Z,99534.63
2023-01-10T03:19:47.700Z,99529.59
2023-01-10T03:22:15.856Z,99534.06
2023-01-10T03:24:47.159Z,99529.94
2023-01-10T03:27:31.978Z,99524.63
2023-01-10T03:30:09.070Z,99529.94
2023-01-10T03:32:36.597Z,99528.31
2023-01-10T03:35:04.827Z,99516.91
2023-01-10T03:37:47.336Z,99522.25
2023-01-10T03:40:29.097Z,99526.09
2023-01-10T03:43:24.637Z,99529.31
2023-01-10T03:46:10.537Z,99526.03
2023-01-10T03:48:45.089Z,99531.81
2023-01-10T03:51:13.190Z,99531.06
2023-01-10T03:53:40.678Z,99512.00
2023-01-10T03:56:08.367Z,99505.06
2023-01-10T03:58:35.463Z,99506.38
2023-01-10T04:01:02.746Z,99500.88
2023-01-10T04:03:30.105Z,99504.75
2023-01-10T04:05:57.167Z,99518.03
2023-01-10T04:08:24.203Z,99510.06
2023-01-10T04:10:51.457Z,99510.06
2023-01-10T04:13:18.528Z,99505.47
2023-01-10T04:15:45.744Z,99502.06
2023-01-10T04:18:16.595Z,99493.47
2023-01-10T04:20:43.741Z,99493.47
2023-01-10T04:23:10.940Z,99489.03
2023-01-10T04:25:38.177Z,99487.56
2023-01-10T04:28:05.418Z,99487.25
2023-01-10T04:30:32.427Z,99488.44
2023-01-10T04:32:59.551Z,99481.47
2023-01-10T04:35:26.819Z,99484.59
2023-01-10T04:37:53.820Z,99480.72
2023-01-10T04:40:23.821Z,99483.41
2023-01-10T04:42:50.965Z,99484.59
2023-01-10T04:45:20.517Z,99479.25
2023-01-10T04:47:52.442Z,99473.63
2023-01-10T04:50:19.552Z,99465.38
2023-01-10T04:52:46.619Z,99471.88
2023-01-10T04:55:13.843Z,99470.38
2023-01-10T04:57:41.004Z,99479.38
2023-01-10T05:00:10.020Z,99470.97
2023-01-10T05:02:42.955Z,99461.41
2023-01-10T05:05:14.223Z,99455.63
2023-01-10T05:07:41.720Z,99454.88
2023-01-10T05:10:09.800Z,99459.44
2023-01-10T05:12:36.939Z,99460.31
2023-01-10T05:15:05.052Z,99460.66
2023-01-10T05:17:32.101Z,99464.78
2023-01-10T05:19:59.142Z,99453.41
2023-01-10T05:22:26.289Z,99464.78
2023-01-10T05:24:54.638Z,99457.09
2023-01-10T05:27:21.943Z,99457.53
2023-01-10T05:29:49.570Z,99454.41
2023-01-10T05:32:16.732Z,99457.63
2023-01-10T05:34:44.033Z,99468.28
2023-01-10T05:37:11.245Z,99459.88
2023-01-10T05:39:40.219Z,99458.22
2023-01-10T05:42:07.436Z,99458.22
2023-01-10T05:44:34.947Z,99464.31
2023-01-10T05:47:02.080Z,99471.13
2023-01-10T05:49:29.183Z,99465.66
2023-01-10T05:51:56.462Z,99467.16
2023-01-10T05:54:23.539Z,99471.72
2023-01-10T05:56:50.668Z,99469.06
2023-01-10T05:59:28.067Z,99463.00
2023-01-10T06:01:55.889Z,99461.69
2023-01-10T06:04:23.090Z,99469.53
2023-01-10T06:06:50.265Z,99460.66
2023-01-10T06:09:17.495Z,99462.44
2023-01-10T06:11:44.738Z,99465.13
2023-01-10T06:14:11.788Z,99455.66
2023-01-10T06:16:39.005Z,99470.44
2023-01-10T06:19:06.182Z,99471.94
2023-01-10T06:21:33.363Z,99472.22
2023-01-10T06:24:00.681Z,99473.41
2023-01-10T06:26:27.810Z,99472.22
2023-01-10T06:28:55.011Z,99471.94
2023-01-10T06:31:22.771Z,99481.94
2023-01-10T06:33:53.150Z,99484.31
2023-01-10T06:36:21.262Z,99488.16
2023-01-10T06:38:48.499Z,99501.78
2023-01-10T06:41:15.752Z,99498.66
2023-01-10T06:43:45.863Z,99484.19
2023-01-10T06:46:18.167Z,99488.66
2023-01-10T06:48:46.512Z,99502.38
2023-01-10T06:51:15.371Z,99511.84
2023-01-10T06:53:43.266Z,99514.78
2023-01-10T06:56:11.452Z,99513.47
2023-01-10T06:58:39.255Z,99509.63
2023-01-10T07:01:08.304Z,99513.78
2023-01-10T07:03:35.612Z,99517.59
2023-01-10T07:06:03.791Z,99523.69
2023-01-10T07:08:30.869Z,99521.94
2023-01-10T07:10:59.748Z,99534.00
2023-01-10T07:13:26.763Z,99535.50
2023-01-10T07:16:02.445Z,99544.22
2023-01-10T07:18:29.464Z,99541.16
2023-01-10T07:20:56.511Z,99536.56
2023-01-10T07:23:23.724Z,99542.91
2023-01-10T07:25:50.770Z,99538.22
2023-01-10T07:28:17.853Z,99541.19
2023-01-10T07:30:45.109Z,99542.66
2023-01-10T07:33:12.144Z,99536.16
2023-01-10T07:35:39.844Z,99531.69
2023-01-10T07:38:06.968Z,99540.59
2023-01-10T07:40:34.016Z,99541.75
2023-01-10T07:43:02.859Z,99547.38
2023-01-10T07:45:30.809Z,99537.03
2023-01-10T07:48:04.489Z,99536.91
2023-01-10T07:50:34.799Z,99545.47
2023-01-10T07:53:03.564Z,99545.78
2023-01-10T07:55:31.439Z,99551.41
2023-01-10T07:57:59.006Z,99557.47
2023-01-10T08:00:26.419Z,99559.09
2023-01-10T08:02:55.341Z,99562.06
2023-01-10T08:05:24.162Z,99564.28
2023-01-10T08:07:51.343Z,99565.16
2023-01-10T08:10:18.586Z,99572.41
2023-01-10T08:12:46.337Z,99580.38
2023-01-10T08:15:13.413Z,99581.13
2023-01-10T08:17:41.131Z,99582.28
2023-01-10T08:20:09.116Z,99590.28
2023-01-10T08:22:36.176Z,99591.47
2023-01-10T08:25:03.292Z,99591.47
2023-01-10T08:27:30.393Z,99599.03
2023-01-10T08:29:57.464Z,99605.38
2023-01-10T08:32:24.597Z,99602.91
2023-01-10T08:34:51.634Z,99593.59
2023-01-10T08:37:18.716Z,99588.28
2023-01-10T08:39:45.821Z,99595.81
2023-01-10T08:42:12.920Z,99598.94
2023-01-10T08:44:39.925Z,99608.06
2023-01-10T08:47:07.101Z,99604.25
2023-01-10T08:49:34.286Z,99592.00
2023-01-10T08:52:02.858Z,99606.31
2023-01-10T08:54:30.383Z,99605.44
2023-01-10T08:56:57.428Z,99606.03
2023-01-10T08:59:24.449Z,99606.03
2023-01-10T09:01:51.729Z,99606.69
2023-01-10T09:04:18.879Z,99605.06
2023-01-10T09:06:45.962Z,99601.22
2023-01-10T09:09:13.015Z,99604.91
2023-01-10T09:11:41.859Z,99610.53
2023-01-10T09:14:09.185Z,99620.91
2023-01-10T09:16:36.238Z,99625.97
2023-01-10T09:19:04.346Z,99621.53
2023-01-10T09:21:31.723Z,99622.72
2023-01-10T09:23:58.736Z,99628.25
2023-01-10T09:26:26.085Z,99634.47
2023-01-10T09:28:53.079Z,99632.38
2023-01-10T09:31:20.106Z,99622.75
2023-01-10T09:33:50.107Z,99624.97
2023-01-10T09:36:17.232Z,99628.69
2023-01-10T09:38:45.076Z,99628.97
2023-01-10T09:41:18.142Z,99642.19
2023-01-10T09:44:01.208Z,99641.72
2023-01-10T09:46:47.504Z,99642.75
2023-01-10T09:49:18.754Z,99645.59
2023-01-10T09:51:50.118Z,99660.69
2023-01-10T09:54:29.540Z,99659.06
2023-01-10T09:56:58.746Z,99662.47
2023-01-10T09:59:39.114Z,99659.34
2023-01-10T10:02:21.237Z,99666.63
2023-01-10T10:05:25.344Z,99667.78
2023-01-10T10:07:58.418Z,99675.34
2023-01-10T10:10:31.087Z,99679.34
2023-01-10T10:13:08.059Z,99677.13
2023-01-10T10:15:49.872Z,99677.28
2023-01-10T10:18:19.665Z,99681.84
2023-01-10T10:21:02.424Z,99696.25
2023-01-10T10:23:40.860Z,99700.66
2023-01-10T10:26:34.228Z,99704.84
2023-01-10T10:29:16.392Z,99698.31
2023-01-10T10:32:13.632Z,99699.06
2023-01-10T10:34:54.267Z,99690.06
2023-01-10T10:37:27.190Z,99698.34
2023-01-10T10:40:02.374Z,99705.00
2023-01-10T10:42:38.805Z,99702.75
2023-01-10T10:45:07.640Z,99695.66
2023-01-10T10:47:36.863Z,99695.66
2023-01-10T10:50:16.813Z,99703.66
2023-01-10T10:52:45.463Z,99705.72
2023-01-10T10:55:23.772Z,99696.81
2023-01-10T10:57:59.731Z,99701.25
2023-01-10T11:00:28.500Z,99701.25
2023-01-10T11:03:05.046Z,99696.66
2023-01-10T11:05:40.032Z,99688.47
2023-01-10T11:08:16.194Z,99681.66
2023-01-10T11:10:47.572Z,99684.63
2023-01-10T11:13:35.407Z,99691.53
2023-01-10T11:16:06.305Z,99692.84
2023-01-10T11:18:34.023Z,99679.75
2023-01-10T11:21:09.981Z,99675.44
2023-01-10T11:23:36.939Z,99672.31
2023-01-10T11:26:28.324Z,99677.91
2023-01-10T11:29:09.436Z,99687.59
2023-01-10T11:31:38.322Z,99692.19
2023-01-10T11:34:16.412Z,99692.19
2023-01-10T11:36:54.791Z,99687.00
2023-01-10T11:39:21.828Z,99695.63
2023-01-10T11:41:49.550Z,99685.72
2023-01-10T11:44:28.442Z,99676.56
2023-01-10T11:47:02.179Z,99672.13
2023-01-10T11:49:39.777Z,99671.97
2023-01-10T11:52:26.275Z,99675.38
2023-01-10T11:55:00.626Z,99667.38
2023-01-10T11:57:32.873Z,99664.69
2023-01-10T12:00:08.839Z,99665.25
2023-01-10T12:02:44.345Z,99669.25
2023-01-10T12:05:21.344Z,99668.81
2023-01-10T12:08:24.671Z,99665.84
2023-01-10T12:11:05.026Z,99657.56
2023-01-10T12:13:48.335Z,99660.06
2023-01-10T12:16:24.519Z,99650.97
2023-01-10T12:18:54.671Z,99646.75
2023-01-10T12:21:28.495Z,99647.91
2023-01-10T12:23:58.889Z,99643.09
2023-01-10T12:26:30.383Z,99639.88
2023-01-10T12:29:00.618Z,99634.03
2023-01-10T12:31:31.349Z,99632.81
2023-01-10T12:34:07.528Z,99622.72
2023-01-10T12:36:47.304Z,99619.47
2023-01-10T12:39:30.936Z,99611.19
2023-01-10T12:42:28.561Z,99612.13
2023-01-10T12:45:03.952Z,99609.69
2023-01-10T12:48:15.885Z,99601.03
2023-01-10T12:50:48.949Z,99595.22
2023-01-10T12:53:36.962Z,99588.88
2023-01-10T12:56:08.156Z,99585.00
2023-01-10T12:58:45.451Z,99584.63
2023-01-10T13:01:16.992Z,99578.31
2023-01-10T13:03:46.185Z,99582.38
2023-01-10T13:06:30.285Z,99578.13
2023-01-10T13:08:59.177Z,99568.44
2023-01-10T13:11:33.568Z,99566.97
2023-01-10T13:14:03.220Z,99566.63
2023-01-10T13:16:56.529Z,99565.13
2023-01-10T13:19:27.317Z,99565.66
2023-01-10T13:22:22.549Z,99549.25
2023-01-10T13:25:01.639Z,99548.66
2023-01-10T13:27:33.413Z,99546.34
2023-01-10T13:30:01.121Z,99548.34
2023-01-10T13:32:31.184Z,99541.38
2023-01-10T13:35:14.920Z,99532.13
2023-01-10T13:37:44.902Z,99529.84
2023-01-10T13:40:23.785Z,99522.47
2023-01-10T13:43:33.978Z,99515.56
2023-01-10T13:46:19.437Z,99516.59
2023-01-10T13:48:49.668Z,99514.16
2023-01-10T13:51:18.181Z,99501.78
2023-01-10T13:53:55.330Z,99509.16
2023-01-10T13:56:37.207Z,99504.53
2023-01-10T13:59:30.153Z,99498.25
2023-01-10T14:02:18.881Z,99491.81
2023-01-10T14:05:01.114Z,99484.63
2023-01-10T14:07:55.813Z,99480.34
2023-01-10T14:10:31.712Z,99480.69
2023-01-10T14:13:14.344Z,99471.75
2023-01-10T14:15:46.820Z,99469.94
2023-01-10T14:18:29.099Z,99468.13
2023-01-10T14:21:03.125Z,99467.16
2023-01-10T14:23:51.327Z,99455.28
2023-01-10T14:26:29.369Z,99457.31
2023-01-10T14:28:56.897Z,99454.72
2023-01-10T14:31:25.778Z,99448.69
2023-01-10T14:33:53.911Z,99452.34
2023-01-10T14:36:28.795Z,99453.38
2023-01-10T14:39:02.337Z,99464.06
2023-01-10T14:41:37.600Z,99461.03
2023-01-10T14:44:14.196Z,99465.19
2023-01-10T14:46:49.317Z,99461.56
2023-01-10T14:49:21.336Z,99459.06
2023-01-10T14:51:52.117Z,99452.53
2023-01-10T14:54:25.412Z,99452.63
2023-01-10T14:56:53.823Z,99445.75
2023-01-10T14:59:33.458Z,99440.38
2023-01-10T15:02:03.202Z,99437.59
2023-01-10T15:04:36.486Z,99446.75
2023-01-10T15:07:12.208Z,99435.56
2023-01-10T15:09:39.676Z,99447.63
2023-01-10T15:12:12.621Z,99446.47
2023-01-10T15:14:39.824Z,99440.38
2023-01-10T15:17:09.405Z,99441.50
2023-01-10T15:19:38.943Z,99445.22
2023-01-10T15:22:24.877Z,99445.81
2023-01-10T15:25:01.927Z,99449.19
2023-01-10T15:27:30.345Z,99445.13
2023-01-10T15:29:58.156Z,99440.91
2023-01-10T15:32:29.244Z,99445.44
2023-01-10T15:34:58.429Z,99445.38
2023-01-10T15:37:28.230Z,99448.06
2023-01-10T15:39:55.959Z,99453.56
2023-01-10T15:42:23.552Z,99444.91
2023-01-10T15:44:56.355Z,99449.63
2023-01-10T15:47:41.792Z,99452.59
2023-01-10T15:50:22.635Z,99449.69
2023-01-10T15:53:10.895Z,99449.69
2023-01-10T15:55:49.293Z,99453.94
2023-01-10T15:58:35.353Z,99445.91
2023-01-10T16:01:04.967Z,99457.34
2023-01-10T16:03:36.300Z,99453.34
2023-01-10T16:06:10.309Z,99454.50
2023-01-10T16:08:38.699Z,99457.84
2023-01-10T16:11:09.143Z,99451.03
2023-01-10T16:13:37.701Z,99454.91
2023-01-10T16:16:16.012Z,99460.66
2023-01-10T16:18:43.103Z,99462.88
2023-01-10T16:21:11.881Z,99470.78
2023-01-10T16:23:44.509Z,99470.16
2023-01-10T16:26:11.726Z,99471.47
2023-01-10T16:28:39.228Z,99466.13
2023-01-10T16:31:10.844Z,99459.88
2023-01-10T16:33:38.133Z,99457.66
2023-01-10T16:36:21.500Z,99469.88
2023-01-10T16:38:48.580Z,99468.69
2023-01-10T16:41:34.979Z,99466.69
2023-01-10T16:44:02.145Z,99470.47
2023-01-10T16:46:29.661Z,99473.25
2023-01-10T16:48:57.024Z,99473.25
2023-01-10T16:51:28.627Z,99486.00
2023-01-10T16:53:55.691Z,99492.53
2023-01-10T16:56:27.972Z,99498.22
2023-01-10T16:58:55.866Z,99498.81
2023-01-10T17:01:25.818Z,99486.88
2023-01-10T17:03:53.562Z,99492.47
2023-01-10T17:06:20.912Z,99499.34
2023-01-10T17:08:49.813Z,99497.19
2023-01-10T17:11:21.983Z,99493.38
2023-01-10T17:13:49.222Z,99495.59
2023-01-10T17:16:19.424Z,99491.13
2023-01-10T17:18:47.012Z,99501.09
2023-01-10T17:21:16.809Z,99499.09
2023-01-10T17:23:44.842Z,99501.50
2023-01-10T17:26:14.494Z,99508.84
2023-01-10T17:28:42.122Z,99498.34
2023-01-10T17:31:09.263Z,99505.38
2023-01-10T17:33:36.590Z,99501.91
2023-01-10T17:36:04.142Z,99500.69
2023-01-10T17:38:31.698Z,99503.88
2023-01-10T17:41:03.657Z,99495.47
2023-01-10T17:43:31.651Z,99494.94
2023-01-10T17:45:59.182Z,99501.44
2023-01-10T17:48:26.573Z,99501.97
2023-01-10T17:50:59.875Z,99499.03
2023-01-10T17:53:27.640Z,99497.28
2023-01-10T17:55:54.871Z,99496.56
2023-01-10T17:58:22.347Z,99495.00
2023-01-10T18:00:49.669Z,99494.63
2023-01-10T18:03:16.921Z,99491.34
2023-01-10T18:05:56.196Z,99503.16
2023-01-10T18:08:24.080Z,99501.13
2023-01-10T18:10:51.605Z,99498.91
2023-01-10T18:13:21.206Z,99501.28
2023-01-10T18:15:49.766Z,99504.63
2023-01-10T18:18:17.470Z,99497.53
2023-01-10T18:20:45.823Z,99502.13
2023-01-10T18:23:23.276Z,99507.38
2023-01-10T18:26:01.979Z,99508.31
2023-01-10T18:28:42.321Z,99503.44
2023-01-10T18:31:18.906Z,99518.75
2023-01-10T18:33:47.956Z,99515.50
2023-01-10T18:36:25.407Z,99511.81
2023-01-10T18:38:52.780Z,99518.22
2023-01-10T18:41:21.420Z,99527.63
2023-01-10T18:43:48.940Z,99529.75
2023-01-10T18:46:18.769Z,99530.94
2023-01-10T18:48:46.373Z,99521.66
2023-01-10T18:51:14.919Z,99528.38
2023-01-10T18:53:43.094Z,99535.34
2023-01-10T18:56:11.097Z,99538.94
2023-01-10T18:58:40.951Z,99538.66
2023-01-10T19:01:17.244Z,99539.84
2023-01-10T19:03:45.071Z,99542.22
2023-01-10T19:06:16.319Z,99544.34
2023-01-10T19:08:44.715Z,99535.00
2023-01-10T19:11:15.260Z,99540.50
2023-01-10T19:13:43.910Z,99549.00
2023-01-10T19:16:15.559Z,99558.50
2023-01-10T19:18:43.596Z,99553.88
2023-01-10T19:21:15.691Z,99560.72
2023-01-10T19:23:44.908Z,99561.72
2023-01-10T19:26:12.772Z,99558.34
2023-01-10T19:28:39.888Z,99558.34
2023-01-10T19:31:07.233Z,99557.44
2023-01-10T19:33:35.500Z,99565.72
2023-01-10T19:36:07.223Z,99567.94
2023-01-10T19:38:34.473Z,99574.03
2023-01-10T19:41:01.840Z,99579.63
2023-01-10T19:43:28.993Z,99579.00
2023-01-10T19:45:56.277Z,99578.81
2023-01-10T19:48:23.752Z,99590.25
2023-01-10T19:50:50.885Z,99579.56
2023-01-10T19:53:23.963Z,99585.09
2023-01-10T19:56:00.954Z,99601.28
2023-01-10T19:58:28.154Z,99601.47
2023-01-10T20:00:55.179Z,99603.66
2023-01-10T20:03:22.270Z,99603.66
2023-01-10T20:05:49.388Z,99607.09
2023-01-10T20:08:16.432Z,99612.91
2023-01-10T20:10:43.438Z,99603.13
2023-01-10T20:13:10.895Z,99606.25
2023-01-10T20:15:37.940Z,99608.34
2023-01-10T20:18:05.055Z,99615.59
2023-01-10T20:20:32.511Z,99612.22
2023-01-10T20:22:59.595Z,99611.91
2023-01-10T20:25:26.642Z,99608.22
2023-01-10T20:27:53.697Z,99612.97
2023-01-10T20:30:20.748Z,99613.16
2023-01-10T20:32:48.009Z,99614.81
2023-01-10T20:35:15.127Z,99619.41
2023-01-10T20:37:42.267Z,99624.31
2023-01-10T20:40:10.119Z,99614.34
2023-01-10T20:42:37.743Z,99626.06
2023-01-10T20:45:06.553Z,99617.59
2023-01-10T20:47:33.786Z,99622.69
2023-01-10T20:50:00.892Z,99625.78
2023-01-10T20:52:28.149Z,99623.09
2023-01-10T20:54:55.194Z,99624.59
2023-01-10T20:57:22.271Z,99629.34
2023-01-10T20:59:49.359Z,99636.19
2023-01-10T21:02:16.494Z,99639.31
2023-01-10T21:04:43.520Z,99638.56
2023-01-10T21:07:10.574Z,99638.56
2023-01-10T21:09:37.648Z,99646.56
2023-01-10T21:12:21.791Z,99641.22
2023-01-10T21:14:49.914Z,99654.31
2023-01-10T21:17:16.975Z,99652.38
2023-01-10T21:19:43.984Z,99657.25
2023-01-10T21:22:11.146Z,99659.03
2023-01-10T21:24:38.197Z,99660.50
2023-01-10T21:27:05.162Z,99668.50
2023-01-10T21:29:32.280Z,99671.19
2023-01-10T21:31:59.328Z,99668.69
2023-01-10T21:34:26.804Z,99674.19
2023-01-10T21:36:54.713Z,99681.31
2023-01-10T21:39:21.836Z,99681.03
2023-01-10T21:42:07.346Z,99678.66
2023-01-10T21:44:34.382Z,99680.44
2023-01-10T21:47:01.614Z,99678.22
2023-01-10T21:49:28.784Z,99679.41
2023-01-10T21:51:56.688Z,99676.00
2023-01-10T21:54:23.788Z,99681.34
2023-01-10T21:56:51.059Z,99686.41
2023-01-10T21:59:18.176Z,99680.31
2023-01-10T22:01:46.331Z,99680.03
2023-01-10T22:04:16.313Z,99689.06
2023-01-10T22:06:44.501Z,99681.66
2023-01-10T22:09:11.817Z,99687.75
2023-01-10T22:11:38.938Z,99691.44
2023-01-10T22:14:05.995Z,99692.91
2023-01-10T22:16:33.240Z,99689.22
2023-01-10T22:19:00.319Z,99700.06
2023-01-10T22:21:27.326Z,99700.94
2023-01-10T22:23:54.425Z,99697.41
2023-01-10T22:26:21.468Z,99700.50
2023-01-10T22:28:48.480Z,99702.16
2023-01-10T22:31:15.715Z,99697.75
2023-01-10T22:33:43.152Z,99696.25
2023-01-10T22:36:16.698Z,99709.44
2023-01-10T22:38:47.636Z,99705.75
2023-01-10T22:41:18.079Z,99704.25
2023-01-10T22:43:45.442Z,99712.25
2023-01-10T22:46:16.268Z,99712.25
2023-01-10T22:48:44.076Z,99708.25
2023-01-10T22:51:11.434Z,99713.13
2023-01-10T22:53:38.496Z,99715.19
2023-01-10T22:56:07.661Z,99711.34
2023-01-10T22:58:34.736Z,99716.13
2023-01-10T23:01:04.419Z,99726.78
2023-01-10T23:03:31.375Z,99716.13
2023-01-10T23:05:58.886Z,99725.28
2023-01-10T23:08:27.143Z,99727.69
2023-01-10T23:10:54.950Z,99722.34
2023-01-10T23:13:23.036Z,99722.03
2023-01-10T23:16:04.912Z,99709.00
2023-01-10T23:18:31.977Z,99709.72
2023-01-10T23:20:58.900Z,99709.56
2023-01-10T23:23:26.587Z,99708.38
2023-01-10T23:26:02.941Z,99708.81
2023-01-10T23:28:37.300Z,99718.78
2023-01-10T23:31:06.001Z,99724.38
2023-01-10T23:33:33.779Z,99719.66
2023-01-10T23:36:01.140Z,99717.16
2023-01-10T23:38:28.471Z,99719.69
2023-01-10T23:40:55.548Z,99718.78
2023-01-10T23:43:23.334Z,99718.94
2023-01-10T23:45:50.777Z,99713.59
2023-01-10T23:48:17.879Z,99713.44
2023-01-10T23:50:48.098Z,99706.03
2023-01-10T23:53:15.386Z,99707.34
2023-01-10T23:55:42.557Z,99697.75
2023-01-10T23:58:10.095Z,99703.06
